createdAt,value
2022-09-22T00:01:12.425Z,100415.75
2022-09-22T00:03:41.452Z,100417.47
2022-09-22T00:06:15.346Z,100418.44
2022-09-22T00:08:48.863Z,100404.19
2022-09-22T00:11:19.253Z,100403.31
2022-09-22T00:13:48.623Z,100413.22
2022-09-22T00:16:15.833Z,100417.72
2022-09-22T00:18:43.825Z,100405.03
2022-09-22T00:21:13.224Z,100410.41
2022-09-22T00:23:44.947Z,100399.66
2022-09-22T00:26:14.306Z,100403.31
2022-09-22T00:28:43.084Z,100410.66
2022-09-22T00:31:10.512Z,100405.53
2022-09-22T00:33:40.764Z,100407.50
2022-09-22T00:36:09.245Z,100403.38
2022-09-22T00:38:40.646Z,100407.03
2022-09-22T00:41:10.411Z,100409.97
2022-09-22T00:43:38.502Z,100402.88
2022-09-22T00:46:08.375Z,100407.53
2022-09-22T00:48:37.804Z,100403.13
2022-09-22T00:51:07.828Z,100401.44
2022-09-22T00:53:35.768Z,100397.19
2022-09-22T00:56:09.394Z,100400.00
2022-09-22T00:58:40.118Z,100394.91
2022-09-22T01:01:09.562Z,100391.22
2022-09-22T01:03:39.235Z,100398.53
2022-09-22T01:06:09.490Z,100393.44
2022-09-22T01:08:37.695Z,100388.31
2022-09-22T01:11:06.878Z,100386.59
2022-09-22T01:13:56.835Z,100384.94
2022-09-22T01:16:29.474Z,100384.19
2022-09-22T01:19:11.781Z,100378.09
2022-09-22T01:21:49.531Z,100381.75
2022-09-22T01:24:31.118Z,100380.06
2022-09-22T01:27:23.710Z,100374.97
2022-09-22T01:30:08.545Z,100371.28
2022-09-22T01:32:55.310Z,100385.69
2022-09-22T01:35:31.797Z,100376.66
2022-09-22T01:38:09.988Z,100374.97
2022-09-22T01:40:51.704Z,100376.91
2022-09-22T01:43:21.108Z,100373.50
2022-09-22T01:45:48.825Z,100378.88
2022-09-22T01:48:42.398Z,100381.53
2022-09-22T01:51:18.400Z,100369.84
2022-09-22T01:53:49.974Z,100365.34
2022-09-22T01:56:19.602Z,100367.28
2022-09-22T01:58:52.672Z,100363.03
2022-09-22T02:01:20.435Z,100359.38
2022-09-22T02:04:03.089Z,100361.06
2022-09-22T02:06:37.478Z,100360.22
2022-09-22T02:09:07.106Z,100362.78
2022-09-22T02:11:34.986Z,100364.50
2022-09-22T02:14:02.558Z,100358.13
2022-09-22T02:16:31.014Z,100349.25
2022-09-22T02:19:13.393Z,100353.78
2022-09-22T02:21:43.818Z,100362.53
2022-09-22T02:24:29.975Z,100358.88
2022-09-22T02:26:58.784Z,100353.78
2022-09-22T02:29:29.131Z,100358.13
2022-09-22T02:31:57.889Z,100363.38
2022-09-22T02:34:24.510Z,100354.34
2022-09-22T02:37:12.432Z,100344.47
2022-09-22T02:39:42.336Z,100348.16
2022-09-22T02:42:31.884Z,100349.13
2022-09-22T02:45:00.969Z,100355.44
2022-09-22T02:47:46.103Z,100359.13
2022-09-22T02:50:15.682Z,100359.38
2022-09-22T02:52:43.596Z,100357.66
2022-09-22T02:55:10.946Z,100362.78
2022-09-22T02:57:37.376Z,100354.03
2022-09-22T03:00:05.956Z,100352.56
2022-09-22T03:02:33.423Z,100360.59
2022-09-22T03:05:01.664Z,100367.94
2022-09-22T03:07:29.546Z,100370.59
2022-09-22T03:09:57.363Z,100362.44
2022-09-22T03:12:24.992Z,100354.53
2022-09-22T03:14:53.048Z,100357.34
2022-09-22T03:17:20.536Z,100363.53
2022-09-22T03:19:47.918Z,100351.09
2022-09-22T03:22:15.488Z,100347.44
2022-09-22T03:24:43.080Z,100347.69
2022-09-22T03:27:10.809Z,100359.25
2022-09-22T03:29:38.211Z,100357.84
2022-09-22T03:32:04.699Z,100354.31
2022-09-22T03:34:31.130Z,100352.59
2022-09-22T03:36:58.818Z,100350.88
2022-09-22T03:39:26.702Z,100355.28
2022-09-22T03:41:54.579Z,100357.25
2022-09-22T03:44:22.387Z,100347.88
2022-09-22T03:46:50.197Z,100356.03
2022-09-22T03:49:17.626Z,100354.31
2022-09-22T03:51:45.257Z,100352.63
2022-09-22T03:54:13.057Z,100355.19
2022-09-22T03:56:40.670Z,100368.22
2022-09-22T03:59:10.349Z,100366.50
2022-09-22T04:01:38.252Z,100362.84
2022-09-22T04:04:06.133Z,100348.72
2022-09-22T04:06:34.315Z,100350.16
2022-09-22T04:09:01.729Z,100358.94
2022-09-22T04:11:29.241Z,100368.22
2022-09-22T04:13:55.955Z,100365.41
2022-09-22T04:16:22.488Z,100368.22
2022-09-22T04:18:49.862Z,100361.00
2022-09-22T04:21:17.881Z,100359.19
2022-09-22T04:23:45.585Z,100357.50
2022-09-22T04:26:14.638Z,100362.84
2022-09-22T04:28:41.072Z,100370.16
2022-09-22T04:31:08.838Z,100364.53
2022-09-22T04:33:36.323Z,100366.25
2022-09-22T04:36:03.909Z,100376.84
2022-09-22T04:38:31.693Z,100376.97
2022-09-22T04:41:01.390Z,100382.59
2022-09-22T04:43:29.153Z,100381.50
2022-09-22T04:45:57.106Z,100391.09
2022-09-22T04:48:24.791Z,100382.09
2022-09-22T04:50:52.331Z,100371.38
2022-09-22T04:53:20.101Z,100380.38
2022-09-22T04:55:49.537Z,100375.00
2022-09-22T04:58:17.213Z,100376.00
2022-09-22T05:00:45.002Z,100378.69
2022-09-22T05:03:18.704Z,100390.84
2022-09-22T05:05:49.471Z,100377.56
2022-09-22T05:08:17.082Z,100385.22
2022-09-22T05:10:45.363Z,100377.56
2022-09-22T05:13:14.540Z,100388.16
2022-09-22T05:15:41.350Z,100384.38
2022-09-22T05:18:08.032Z,100382.69
2022-09-22T05:20:34.471Z,100377.66
2022-09-22T05:23:00.907Z,100374.25
2022-09-22T05:25:27.506Z,100377.91
2022-09-22T05:27:55.135Z,100382.31
2022-09-22T05:30:22.582Z,100377.41
2022-09-22T05:32:49.726Z,100384.47
2022-09-22T05:35:17.522Z,100385.69
2022-09-22T05:37:59.268Z,100373.75
2022-09-22T05:40:26.791Z,100387.53
2022-09-22T05:42:53.910Z,100382.50
2022-09-22T05:45:20.733Z,100379.25
2022-09-22T05:47:47.223Z,100387.53
2022-09-22T05:50:15.116Z,100390.34
2022-09-22T05:52:41.567Z,100390.81
2022-09-22T05:55:08.324Z,100390.09
2022-09-22T05:57:34.840Z,100387.88
2022-09-22T06:00:01.446Z,100390.69
2022-09-22T06:02:27.965Z,100394.69
2022-09-22T06:04:54.402Z,100394.31
2022-09-22T06:07:21.595Z,100388.06
2022-09-22T06:09:48.715Z,100397.06
2022-09-22T06:12:15.576Z,100396.16
2022-09-22T06:14:42.055Z,100397.03
2022-09-22T06:17:10.632Z,100400.44
2022-09-22T06:19:37.585Z,100390.91
2022-09-22T06:22:05.686Z,100387.47
2022-09-22T06:24:33.246Z,100397.81
2022-09-22T06:27:00.981Z,100399.41
2022-09-22T06:29:28.924Z,100397.19
2022-09-22T06:31:56.709Z,100399.41
2022-09-22T06:34:23.951Z,100397.44
2022-09-22T06:36:50.483Z,100400.00
2022-09-22T06:39:17.052Z,100402.28
2022-09-22T06:41:44.841Z,100400.78
2022-09-22T06:44:12.687Z,100407.00
2022-09-22T06:46:39.366Z,100408.66
2022-09-22T06:49:05.791Z,100402.34
2022-09-22T06:51:33.532Z,100396.34
2022-09-22T06:54:01.983Z,100405.22
2022-09-22T06:56:29.657Z,100404.44
2022-09-22T06:59:09.934Z,100404.16
2022-09-22T07:01:37.515Z,100406.84
2022-09-22T07:04:04.726Z,100413.69
2022-09-22T07:06:31.192Z,100412.34
2022-09-22T07:08:57.646Z,100409.53
2022-09-22T07:11:24.131Z,100408.69
2022-09-22T07:13:54.450Z,100408.16
2022-09-22T07:16:22.368Z,100418.38
2022-09-22T07:18:49.936Z,100416.22
2022-09-22T07:21:27.767Z,100420.09
2022-09-22T07:23:54.996Z,100421.03
2022-09-22T07:26:23.337Z,100420.22
2022-09-22T07:28:52.406Z,100424.19
2022-09-22T07:31:19.127Z,100422.44
2022-09-22T07:33:46.450Z,100422.94
2022-09-22T07:36:14.327Z,100427.53
2022-09-22T07:38:41.714Z,100427.28
2022-09-22T07:41:12.269Z,100433.72
2022-09-22T07:43:39.526Z,100438.41
2022-09-22T07:46:06.314Z,100429.16
2022-09-22T07:48:48.093Z,100443.25
2022-09-22T07:51:20.162Z,100438.75
2022-09-22T07:53:47.869Z,100447.13
2022-09-22T07:56:15.786Z,100445.72
2022-09-22T07:58:46.883Z,100447.31
2022-09-22T08:01:14.454Z,100445.97
2022-09-22T08:03:41.696Z,100457.06
2022-09-22T08:06:12.962Z,100446.94
2022-09-22T08:08:44.067Z,100447.69
2022-09-22T08:11:15.188Z,100433.19
2022-09-22T08:13:43.755Z,100435.03
2022-09-22T08:16:11.895Z,100437.28
2022-09-22T08:18:39.872Z,100437.84
2022-09-22T08:21:07.252Z,100437.00
2022-09-22T08:23:34.279Z,100438.13
2022-09-22T08:26:04.830Z,100438.84
2022-09-22T08:28:31.450Z,100448.06
2022-09-22T08:30:58.955Z,100441.81
2022-09-22T08:33:26.303Z,100438.66
2022-09-22T08:35:53.387Z,100442.06
2022-09-22T08:38:20.799Z,100439.50
2022-09-22T08:40:49.449Z,100439.34
2022-09-22T08:43:16.082Z,100436.59
2022-09-22T08:45:44.462Z,100443.56
2022-09-22T08:48:36.302Z,100433.75
2022-09-22T08:51:25.028Z,100434.31
2022-09-22T08:53:52.339Z,100435.38
2022-09-22T08:56:22.255Z,100444.19
2022-09-22T08:58:56.536Z,100444.81
2022-09-22T09:01:42.624Z,100446.34
2022-09-22T09:04:12.122Z,100440.41
2022-09-22T09:07:06.596Z,100433.94
2022-09-22T09:09:46.000Z,100431.59
2022-09-22T09:12:31.016Z,100428.94
2022-09-22T09:15:07.302Z,100436.00
2022-09-22T09:17:36.719Z,100429.13
2022-09-22T09:20:09.332Z,100427.38
2022-09-22T09:22:43.701Z,100432.72
2022-09-22T09:25:23.293Z,100426.00
2022-09-22T09:27:54.662Z,100433.78
2022-09-22T09:30:21.889Z,100428.88
2022-09-22T09:33:01.631Z,100426.75
2022-09-22T09:35:32.312Z,100423.25
2022-09-22T09:37:59.771Z,100425.44
2022-09-22T09:40:27.610Z,100414.69
2022-09-22T09:43:03.336Z,100421.78
2022-09-22T09:45:51.860Z,100425.75
2022-09-22T09:48:21.562Z,100432.72
2022-09-22T09:50:48.012Z,100422.44
2022-09-22T09:53:24.993Z,100428.94
2022-09-22T09:55:51.416Z,100419.78
2022-09-22T09:58:37.798Z,100409.94
2022-09-22T10:01:06.852Z,100409.72
2022-09-22T10:03:34.306Z,100417.72
2022-09-22T10:06:10.510Z,100404.31
2022-09-22T10:08:47.436Z,100415.66
2022-09-22T10:11:15.223Z,100412.28
2022-09-22T10:13:42.758Z,100404.47
2022-09-22T10:16:18.274Z,100409.50
2022-09-22T10:18:44.802Z,100401.84
2022-09-22T10:21:19.061Z,100406.69
2022-09-22T10:23:46.738Z,100404.22
2022-09-22T10:26:14.998Z,100401.47
2022-09-22T10:28:41.428Z,100397.69
2022-09-22T10:31:17.928Z,100402.47
2022-09-22T10:33:54.879Z,100389.97
2022-09-22T10:36:25.892Z,100393.72
2022-09-22T10:38:57.350Z,100384.16
2022-09-22T10:41:30.870Z,100387.13
2022-09-22T10:44:03.106Z,100383.56
2022-09-22T10:46:37.009Z,100381.53
2022-09-22T10:49:04.307Z,100372.03
2022-09-22T10:51:45.877Z,100372.19
2022-09-22T10:54:18.769Z,100367.09
2022-09-22T10:56:55.939Z,100368.00
2022-09-22T10:59:32.541Z,100365.16
2022-09-22T11:02:02.136Z,100358.28
2022-09-22T11:04:34.608Z,100364.81
2022-09-22T11:07:22.351Z,100357.72
2022-09-22T11:10:19.264Z,100349.00
2022-09-22T11:13:05.906Z,100345.13
2022-09-22T11:15:35.221Z,100338.56
2022-09-22T11:18:37.593Z,100340.59
2022-09-22T11:21:08.692Z,100340.09
2022-09-22T11:23:47.289Z,100328.53
2022-09-22T11:26:21.354Z,100326.53
2022-09-22T11:28:54.920Z,100330.56
2022-09-22T11:31:37.592Z,100320.47
2022-09-22T11:34:04.084Z,100333.47
2022-09-22T11:36:51.737Z,100325.53
2022-09-22T11:39:18.359Z,100320.06
2022-09-22T11:41:52.124Z,100313.03
2022-09-22T11:44:28.533Z,100314.88
2022-09-22T11:47:14.124Z,100314.44
2022-09-22T11:49:59.636Z,100311.78
2022-09-22T11:52:45.613Z,100302.72
2022-09-22T11:55:18.433Z,100307.31
2022-09-22T11:57:47.942Z,100303.75
2022-09-22T12:00:17.409Z,100299.38
2022-09-22T12:03:02.083Z,100297.19
2022-09-22T12:05:39.288Z,100295.16
2022-09-22T12:08:08.419Z,100287.25
2022-09-22T12:10:36.676Z,100284.81
2022-09-22T12:13:05.254Z,100283.50
2022-09-22T12:15:31.727Z,100286.44
2022-09-22T12:18:06.147Z,100289.31
2022-09-22T12:23:11.146Z,100281.06
2022-09-22T12:25:57.563Z,100277.19
2022-09-22T12:28:25.854Z,100282.09
2022-09-22T12:31:15.508Z,100279.22
2022-09-22T12:33:47.512Z,100281.59
2022-09-22T12:36:15.130Z,100273.75
2022-09-22T12:38:41.744Z,100272.78
2022-09-22T12:41:08.436Z,100271.13
2022-09-22T12:43:35.886Z,100259.81
2022-09-22T12:46:04.750Z,100248.94
2022-09-22T12:48:36.214Z,100240.34
2022-09-22T12:51:29.761Z,100249.56
2022-09-22T12:54:14.717Z,100248.25
2022-09-22T12:56:46.472Z,100244.41
2022-09-22T12:59:31.337Z,100252.00
2022-09-22T13:02:16.235Z,100245.06
2022-09-22T13:05:02.945Z,100248.38
2022-09-22T13:07:42.568Z,100247.34
2022-09-22T13:10:22.010Z,100251.34
2022-09-22T13:13:11.921Z,100237.16
2022-09-22T13:15:45.737Z,100242.22
2022-09-22T13:18:30.679Z,100241.53
2022-09-22T13:21:00.046Z,100246.72
2022-09-22T13:23:26.831Z,100249.50
2022-09-22T13:25:53.368Z,100255.41
2022-09-22T13:28:22.010Z,100254.75
2022-09-22T13:31:17.970Z,100254.81
2022-09-22T13:33:44.627Z,100243.97
2022-09-22T13:36:15.383Z,100251.44
2022-09-22T13:38:43.100Z,100259.41
2022-09-22T13:41:29.759Z,100254.16
2022-09-22T13:43:58.924Z,100240.63
2022-09-22T13:46:28.203Z,100253.47
2022-09-22T13:48:57.113Z,100252.31
2022-09-22T13:51:25.915Z,100250.94
2022-09-22T13:53:53.869Z,100253.81
2022-09-22T13:56:22.118Z,100257.19
2022-09-22T13:58:50.118Z,100265.31
2022-09-22T14:01:20.768Z,100267.34
2022-09-22T14:03:47.969Z,100273.81
2022-09-22T14:06:16.043Z,100265.00
2022-09-22T14:08:43.561Z,100259.94
2022-09-22T14:11:18.352Z,100258.56
2022-09-22T14:13:57.878Z,100255.50
2022-09-22T14:16:36.271Z,100255.16
2022-09-22T14:19:15.027Z,100245.38
2022-09-22T14:21:49.719Z,100250.72
2022-09-22T14:24:16.606Z,100250.91
2022-09-22T14:26:50.195Z,100243.09
2022-09-22T14:29:25.220Z,100245.97
2022-09-22T14:32:14.680Z,100242.53
2022-09-22T14:34:45.601Z,100245.28
2022-09-22T14:37:29.177Z,100249.63
2022-09-22T14:39:57.200Z,100244.34
2022-09-22T14:42:25.843Z,100235.88
2022-09-22T14:44:52.436Z,100237.78
2022-09-22T14:47:26.799Z,100238.03
2022-09-22T14:50:07.113Z,100243.97
2022-09-22T14:52:35.709Z,100249.41
2022-09-22T14:55:08.232Z,100251.63
2022-09-22T14:57:35.283Z,100243.97
2022-09-22T15:00:20.977Z,100250.19
2022-09-22T15:02:52.697Z,100240.06
2022-09-22T15:05:29.363Z,100237.00
2022-09-22T15:07:56.648Z,100243.38
2022-09-22T15:10:25.635Z,100242.25
2022-09-22T15:12:52.590Z,100246.41
2022-09-22T15:15:23.624Z,100245.13
2022-09-22T15:18:09.816Z,100249.53
2022-09-22T15:20:42.975Z,100254.00
2022-09-22T15:23:21.498Z,100252.69
2022-09-22T15:25:48.271Z,100255.16
2022-09-22T15:28:16.392Z,100256.50
2022-09-22T15:30:44.699Z,100258.69
2022-09-22T15:33:14.711Z,100262.91
2022-09-22T15:35:45.612Z,100260.69
2022-09-22T15:38:17.413Z,100264.28
2022-09-22T15:40:45.318Z,100266.19
2022-09-22T15:43:13.605Z,100264.41
2022-09-22T15:45:49.371Z,100271.00
2022-09-22T15:48:21.216Z,100278.84
2022-09-22T15:50:47.630Z,100273.25
2022-09-22T15:53:14.433Z,100278.28
2022-09-22T15:55:40.837Z,100286.31
2022-09-22T15:58:10.150Z,100284.28
2022-09-22T16:00:36.742Z,100290.88
2022-09-22T16:03:06.014Z,100289.69
2022-09-22T16:05:34.455Z,100300.13
2022-09-22T16:08:00.994Z,100303.97
2022-09-22T16:10:27.416Z,100308.47
2022-09-22T16:12:53.844Z,100303.84
2022-09-22T16:15:20.279Z,100321.19
2022-09-22T16:17:46.769Z,100333.66
2022-09-22T16:20:14.831Z,100336.53
2022-09-22T16:22:41.736Z,100329.84
2022-09-22T16:25:09.970Z,100340.91
2022-09-22T16:27:37.834Z,100347.00
2022-09-22T16:30:04.455Z,100340.91
2022-09-22T16:32:32.519Z,100341.06
2022-09-22T16:34:59.009Z,100339.94
2022-09-22T16:37:25.813Z,100348.22
2022-09-22T16:39:52.249Z,100347.56
2022-09-22T16:42:23.385Z,100347.88
2022-09-22T16:44:50.161Z,100344.22
2022-09-22T16:47:21.114Z,100338.59
2022-09-22T16:49:49.544Z,100352.16
2022-09-22T16:52:16.030Z,100352.03
2022-09-22T16:54:42.471Z,100346.94
2022-09-22T16:57:08.900Z,100347.22
2022-09-22T16:59:35.372Z,100354.31
2022-09-22T17:02:01.865Z,100360.84
2022-09-22T17:04:28.532Z,100346.28
2022-09-22T17:06:54.954Z,100341.03
2022-09-22T17:09:22.805Z,100330.28
2022-09-22T17:11:49.391Z,100310.69
2022-09-22T17:14:22.790Z,100298.22
2022-09-22T17:16:52.091Z,100300.47
2022-09-22T17:19:19.707Z,100307.81
2022-09-22T17:21:47.359Z,100309.19
2022-09-22T17:24:14.867Z,100316.59
2022-09-22T17:26:47.356Z,100312.91
2022-09-22T17:29:15.916Z,100315.59
2022-09-22T17:31:43.136Z,100311.78
2022-09-22T17:34:10.535Z,100316.66
2022-09-22T17:36:37.529Z,100314.16
2022-09-22T17:39:04.419Z,100312.75
2022-09-22T17:41:32.965Z,100321.84
2022-09-22T17:44:03.365Z,100329.25
2022-09-22T17:46:31.637Z,100324.16
2022-09-22T17:49:16.684Z,100326.84
2022-09-22T17:52:05.592Z,100330.81
2022-09-22T17:54:50.347Z,100331.69
2022-09-22T17:57:37.048Z,100325.59
2022-09-22T18:00:04.472Z,100327.56
2022-09-22T18:02:37.438Z,100345.72
2022-09-22T18:05:04.614Z,100341.31
2022-09-22T18:07:33.117Z,100342.34
2022-09-22T18:09:59.636Z,100346.84
2022-09-22T18:12:26.041Z,100347.00
2022-09-22T18:14:53.681Z,100353.41
2022-09-22T18:17:22.861Z,100353.97
2022-09-22T18:19:49.415Z,100355.09
2022-09-22T18:22:20.979Z,100345.47
2022-09-22T18:24:50.832Z,100350.28
2022-09-22T18:27:19.220Z,100358.50
2022-09-22T18:29:47.209Z,100352.56
2022-09-22T18:32:13.727Z,100355.69
2022-09-22T18:34:40.585Z,100358.81
2022-09-22T18:37:08.648Z,100348.88
2022-09-22T18:39:35.500Z,100354.41
2022-09-22T18:42:01.999Z,100351.16
2022-09-22T18:44:29.123Z,100356.00
2022-09-22T18:46:56.423Z,100342.97
2022-09-22T18:49:23.141Z,100349.31
2022-09-22T18:51:49.632Z,100352.84
2022-09-22T18:54:16.967Z,100343.22
2022-09-22T18:56:47.451Z,100341.50
2022-09-22T18:59:18.739Z,100346.63
2022-09-22T19:01:46.230Z,100348.59
2022-09-22T19:04:17.116Z,100345.19
2022-09-22T19:07:02.791Z,100349.16
2022-09-22T19:09:29.378Z,100354.81
2022-09-22T19:11:55.898Z,100351.13
2022-09-22T19:14:22.369Z,100351.13
2022-09-22T19:16:49.090Z,100342.06
2022-09-22T19:19:16.489Z,100349.72
2022-09-22T19:21:42.911Z,100350.44
2022-09-22T19:24:10.655Z,100353.81
2022-09-22T19:26:37.778Z,100350.97
2022-09-22T19:29:05.322Z,100350.84
2022-09-22T19:31:32.683Z,100343.78
2022-09-22T19:33:59.591Z,100355.09
2022-09-22T19:36:26.034Z,100350.31
2022-09-22T19:38:52.487Z,100346.63
2022-09-22T19:41:19.001Z,100352.03
2022-09-22T19:43:45.440Z,100351.19
2022-09-22T19:46:11.931Z,100361.06
2022-09-22T19:48:38.479Z,100361.31
2022-09-22T19:51:05.130Z,100362.19
2022-09-22T19:53:31.765Z,100366.69
2022-09-22T19:55:58.340Z,100361.47
2022-09-22T19:58:25.418Z,100369.25
2022-09-22T20:00:52.360Z,100362.78
2022-09-22T20:03:19.247Z,100361.06
2022-09-22T20:05:46.450Z,100369.00
2022-09-22T20:08:15.872Z,100365.59
2022-09-22T20:10:44.536Z,100361.31
2022-09-22T20:13:31.345Z,100367.72
2022-09-22T20:15:58.217Z,100362.63
2022-09-22T20:18:25.169Z,100366.16
2022-09-22T20:20:52.394Z,100370.69
2022-09-22T20:23:20.730Z,100369.53
2022-09-22T20:25:48.436Z,100366.69
2022-09-22T20:28:14.896Z,100377.75
2022-09-22T20:30:42.770Z,100374.31
2022-09-22T20:33:35.468Z,100370.94
2022-09-22T20:36:01.952Z,100378.00
2022-09-22T20:38:28.438Z,100370.34
2022-09-22T20:40:55.006Z,100383.34
2022-09-22T20:43:21.475Z,100381.94
2022-09-22T20:45:47.903Z,100388.28
2022-09-22T20:48:18.634Z,100394.66
2022-09-22T20:50:46.058Z,100391.53
2022-09-22T20:53:12.899Z,100395.19
2022-09-22T20:55:39.326Z,100389.38
2022-09-22T20:58:05.784Z,100400.41
2022-09-22T21:00:32.205Z,100407.03
2022-09-22T21:03:00.971Z,100406.19
2022-09-22T21:05:27.905Z,100396.56
2022-09-22T21:08:14.311Z,100399.38
2022-09-22T21:10:40.752Z,100403.19
2022-09-22T21:13:07.160Z,100410.66
2022-09-22T21:15:33.679Z,100411.81
2022-09-22T21:18:01.539Z,100419.16
2022-09-22T21:20:29.763Z,100411.22
2022-09-22T21:22:57.853Z,100412.34
2022-09-22T21:25:25.412Z,100418.69
2022-09-22T21:27:53.187Z,100414.31
2022-09-22T21:30:21.051Z,100416.00
2022-09-22T21:32:48.808Z,100417.97
2022-09-22T21:35:19.901Z,100414.59
2022-09-22T21:37:47.412Z,100412.88
2022-09-22T21:40:15.432Z,100406.66
2022-09-22T21:42:41.919Z,100402.41
2022-09-22T21:45:09.747Z,100401.56
2022-09-22T21:47:37.759Z,100400.94
2022-09-22T21:50:06.055Z,100399.53
2022-09-22T21:52:33.715Z,100403.47
2022-09-22T21:55:01.351Z,100394.69
2022-09-22T21:57:29.159Z,100396.38
2022-09-22T21:59:56.952Z,100406.28
2022-09-22T22:02:24.834Z,100400.06
2022-09-22T22:04:55.705Z,100393.94
2022-09-22T22:07:23.473Z,100402.00
2022-09-22T22:09:51.296Z,100400.59
2022-09-22T22:12:21.449Z,100399.84
2022-09-22T22:14:49.082Z,100395.75
2022-09-22T22:17:15.618Z,100403.19
2022-09-22T22:19:42.050Z,100396.28
2022-09-22T22:22:09.590Z,100392.84
2022-09-22T22:24:42.328Z,100387.78
2022-09-22T22:27:10.455Z,100386.06
2022-09-22T22:29:38.733Z,100387.03
2022-09-22T22:32:07.976Z,100373.03
2022-09-22T22:34:35.762Z,100382.94
2022-09-22T22:37:04.746Z,100374.16
2022-09-22T22:39:32.610Z,100378.94
2022-09-22T22:42:00.249Z,100377.47
2022-09-22T22:44:28.120Z,100369.56
2022-09-22T22:46:54.563Z,100373.25
2022-09-22T22:49:21.082Z,100376.91
2022-09-22T22:51:49.902Z,100366.44
2022-09-22T22:54:17.688Z,100373.78
2022-09-22T22:56:49.027Z,100365.84
2022-09-22T22:59:19.222Z,100366.94
2022-09-22T23:01:47.129Z,100370.59
2022-09-22T23:04:16.725Z,100368.91
2022-09-22T23:06:44.968Z,100364.41
2022-09-22T23:09:14.235Z,100361.84
2022-09-22T23:11:42.658Z,100363.81
2022-09-22T23:14:11.576Z,100374.81
2022-09-22T23:16:40.013Z,100372.00
2022-09-22T23:19:08.942Z,100367.72
2022-09-22T23:21:36.199Z,100369.97
2022-09-22T23:24:06.943Z,100366.78
2022-09-22T23:26:34.939Z,100359.84
2022-09-22T23:29:03.928Z,100362.91
2022-09-22T23:31:31.907Z,100372.94
2022-09-22T23:33:59.291Z,100365.00
2022-09-22T23:36:28.487Z,100366.09
2022-09-22T23:38:55.756Z,100364.38
2022-09-22T23:41:22.337Z,100357.34
2022-09-22T23:43:50.106Z,100358.19
2022-09-22T23:46:17.745Z,100357.34
2022-09-22T23:48:47.562Z,100361.84
2022-09-22T23:51:15.132Z,100358.31
2022-09-22T23:53:43.187Z,100363.81
2022-09-22T23:56:10.721Z,100366.63
2022-09-22T23:58:39.048Z,100360.53
